sensor_id;sensor_type;location;lat;lon;timestamp;temperature;humidity
21815;DHT22;11069;48.988;8.450;2022-11-25T00:02:15;4.10;99.90
21815;DHT22;11069;48.988;8.450;2022-11-25T00:04:40;4.10;99.90
21815;DHT22;11069;48.988;8.450;2022-11-25T00:07:12;4.20;99.90
21815;DHT22;11069;48.988;8.450;2022-11-25T00:09:40;4.30;99.90
21815;DHT22;11069;48.988;8.450;2022-11-25T00:12:06;4.50;99.90
21815;DHT22;11069;48.988;8.450;2022-11-25T00:14:32;4.60;99.90
21815;DHT22;11069;48.988;8.450;2022-11-25T00:16:57;4.60;99.90
21815;DHT22;11069;48.988;8.450;2022-11-25T00:19:27;4.70;99.90
21815;DHT22;11069;48.988;8.450;2022-11-25T00:21:52;4.80;99.90
21815;DHT22;11069;48.988;8.450;2022-11-25T00:24:24;4.90;99.90
21815;DHT22;11069;48.988;8.450;2022-11-25T00:26:50;4.80;99.90
21815;DHT22;11069;48.988;8.450;2022-11-25T00:32:05;4.90;99.90
21815;DHT22;11069;48.988;8.450;2022-11-25T00:34:35;5.00;99.90
21815;DHT22;11069;48.988;8.450;2022-11-25T00:37:01;5.00;99.90
21815;DHT22;11069;48.988;8.450;2022-11-25T00:39:26;5.00;99.90
21815;DHT22;11069;48.988;8.450;2022-11-25T00:41:53;5.10;99.90
21815;DHT22;11069;48.988;8.450;2022-11-25T00:44:37;5.10;99.90
21815;DHT22;11069;48.988;8.450;2022-11-25T00:47:12;5.20;99.90
21815;DHT22;11069;48.988;8.450;2022-11-25T00:49:39;5.30;99.90
21815;DHT22;11069;48.988;8.450;2022-11-25T00:52:06;5.20;99.90
21815;DHT22;11069;48.988;8.450;2022-11-25T00:54:31;5.20;99.90
21815;DHT22;11069;48.988;8.450;2022-11-25T00:56:57;5.20;99.90
21815;DHT22;11069;48.988;8.450;2022-11-25T00:59:23;5.10;99.90
21815;DHT22;11069;48.988;8.450;2022-11-25T01:01:49;5.10;99.90
21815;DHT22;11069;48.988;8.450;2022-11-25T01:04:15;4.90;99.90
21815;DHT22;11069;48.988;8.450;2022-11-25T01:06:41;4.60;99.90
21815;DHT22;11069;48.988;8.450;2022-11-25T01:09:09;4.30;99.90
21815;DHT22;11069;48.988;8.450;2022-11-25T01:11:35;4.00;99.90
21815;DHT22;11069;48.988;8.450;2022-11-25T01:14:00;3.70;99.90
21815;DHT22;11069;48.988;8.450;2022-11-25T01:16:26;3.70;99.90
21815;DHT22;11069;48.988;8.450;2022-11-25T01:18:52;3.70;99.90
21815;DHT22;11069;48.988;8.450;2022-11-25T01:21:20;3.70;99.90
21815;DHT22;11069;48.988;8.450;2022-11-25T01:23:47;3.80;99.90
21815;DHT22;11069;48.988;8.450;2022-11-25T01:26:20;3.80;99.90
21815;DHT22;11069;48.988;8.450;2022-11-25T01:28:46;3.90;99.90
21815;DHT22;11069;48.988;8.450;2022-11-25T01:31:18;3.90;99.90
21815;DHT22;11069;48.988;8.450;2022-11-25T01:33:44;3.90;99.90
21815;DHT22;11069;48.988;8.450;2022-11-25T01:36:13;3.90;99.90
21815;DHT22;11069;48.988;8.450;2022-11-25T01:38:39;3.80;99.90
21815;DHT22;11069;48.988;8.450;2022-11-25T01:41:06;3.80;99.90
21815;DHT22;11069;48.988;8.450;2022-11-25T01:43:42;3.80;99.90
21815;DHT22;11069;48.988;8.450;2022-11-25T01:46:20;3.70;99.90
21815;DHT22;11069;48.988;8.450;2022-11-25T01:48:57;3.80;99.90
21815;DHT22;11069;48.988;8.450;2022-11-25T01:51:35;3.90;99.90
21815;DHT22;11069;48.988;8.450;2022-11-25T01:54:05;3.80;99.90
21815;DHT22;11069;48.988;8.450;2022-11-25T01:56:35;3.70;99.90
21815;DHT22;11069;48.988;8.450;2022-11-25T01:59:06;3.70;99.90
21815;DHT22;11069;48.988;8.450;2022-11-25T02:01:36;3.70;99.90
21815;DHT22;11069;48.988;8.450;2022-11-25T02:04:05;3.80;99.90
21815;DHT22;11069;48.988;8.450;2022-11-25T02:06:43;3.70;99.90
21815;DHT22;11069;48.988;8.450;2022-11-25T02:09:14;3.70;99.90
21815;DHT22;11069;48.988;8.450;2022-11-25T02:11:43;3.70;99.90
21815;DHT22;11069;48.988;8.450;2022-11-25T02:14:12;3.70;99.90
21815;DHT22;11069;48.988;8.450;2022-11-25T02:16:39;3.60;99.90
21815;DHT22;11069;48.988;8.450;2022-11-25T02:19:09;3.60;99.90
21815;DHT22;11069;48.988;8.450;2022-11-25T02:21:42;3.60;99.90
21815;DHT22;11069;48.988;8.450;2022-11-25T02:24:19;3.60;99.90
21815;DHT22;11069;48.988;8.450;2022-11-25T02:26:59;3.60;99.90
21815;DHT22;11069;48.988;8.450;2022-11-25T02:29:26;3.60;99.90
21815;DHT22;11069;48.988;8.450;2022-11-25T02:31:52;3.60;99.90
21815;DHT22;11069;48.988;8.450;2022-11-25T02:34:18;3.60;99.90
21815;DHT22;11069;48.988;8.450;2022-11-25T02:36:43;3.60;99.90
21815;DHT22;11069;48.988;8.450;2022-11-25T02:39:09;3.70;99.90
21815;DHT22;11069;48.988;8.450;2022-11-25T02:41:43;3.70;99.90
21815;DHT22;11069;48.988;8.450;2022-11-25T02:44:09;3.70;99.90
21815;DHT22;11069;48.988;8.450;2022-11-25T02:46:35;3.80;99.90
21815;DHT22;11069;48.988;8.450;2022-11-25T02:49:01;3.80;99.90
21815;DHT22;11069;48.988;8.450;2022-11-25T02:51:29;3.80;99.90
21815;DHT22;11069;48.988;8.450;2022-11-25T02:53:55;3.90;99.90
21815;DHT22;11069;48.988;8.450;2022-11-25T02:56:25;3.90;99.90
21815;DHT22;11069;48.988;8.450;2022-11-25T02:58:51;3.80;99.90
21815;DHT22;11069;48.988;8.450;2022-11-25T03:01:17;3.80;99.90
21815;DHT22;11069;48.988;8.450;2022-11-25T03:03:42;3.80;99.90
21815;DHT22;11069;48.988;8.450;2022-11-25T03:06:08;3.80;99.90
21815;DHT22;11069;48.988;8.450;2022-11-25T03:08:35;3.70;99.90
21815;DHT22;11069;48.988;8.450;2022-11-25T03:11:01;3.70;99.90
21815;DHT22;11069;48.988;8.450;2022-11-25T03:13:27;3.70;99.90
21815;DHT22;11069;48.988;8.450;2022-11-25T03:15:53;3.60;99.90
21815;DHT22;11069;48.988;8.450;2022-11-25T03:18:18;3.50;99.90
21815;DHT22;11069;48.988;8.450;2022-11-25T03:20:44;3.50;99.90
21815;DHT22;11069;48.988;8.450;2022-11-25T03:23:10;3.40;99.90
21815;DHT22;11069;48.988;8.450;2022-11-25T03:25:36;3.40;99.90
21815;DHT22;11069;48.988;8.450;2022-11-25T03:28:01;3.40;99.90
21815;DHT22;11069;48.988;8.450;2022-11-25T03:30:28;3.40;99.90
21815;DHT22;11069;48.988;8.450;2022-11-25T03:32:54;3.40;99.90
21815;DHT22;11069;48.988;8.450;2022-11-25T03:35:20;3.40;99.90
21815;DHT22;11069;48.988;8.450;2022-11-25T03:37:45;3.40;99.90
21815;DHT22;11069;48.988;8.450;2022-11-25T03:40:13;3.50;99.90
21815;DHT22;11069;48.988;8.450;2022-11-25T03:42:39;3.50;99.90
21815;DHT22;11069;48.988;8.450;2022-11-25T03:45:05;3.50;99.90
21815;DHT22;11069;48.988;8.450;2022-11-25T03:47:31;3.40;99.90
21815;DHT22;11069;48.988;8.450;2022-11-25T03:49:57;3.30;99.90
21815;DHT22;11069;48.988;8.450;2022-11-25T03:52:23;3.20;99.90
21815;DHT22;11069;48.988;8.450;2022-11-25T03:54:49;3.20;99.90
21815;DHT22;11069;48.988;8.450;2022-11-25T03:57:15;3.10;99.90
21815;DHT22;11069;48.988;8.450;2022-11-25T03:59:41;3.10;99.90
21815;DHT22;11069;48.988;8.450;2022-11-25T04:02:07;3.00;99.90
21815;DHT22;11069;48.988;8.450;2022-11-25T04:04:32;2.90;99.90
21815;DHT22;11069;48.988;8.450;2022-11-25T04:06:58;2.90;99.90
21815;DHT22;11069;48.988;8.450;2022-11-25T04:09:24;2.80;99.90
21815;DHT22;11069;48.988;8.450;2022-11-25T04:11:50;2.70;99.90
21815;DHT22;11069;48.988;8.450;2022-11-25T04:14:34;2.80;99.90
21815;DHT22;11069;48.988;8.450;2022-11-25T04:17:00;2.80;99.90
21815;DHT22;11069;48.988;8.450;2022-11-25T04:19:25;2.70;99.90
21815;DHT22;11069;48.988;8.450;2022-11-25T04:21:51;2.70;99.90
21815;DHT22;11069;48.988;8.450;2022-11-25T04:24:17;2.60;99.90
21815;DHT22;11069;48.988;8.450;2022-11-25T04:26:43;2.50;99.90
21815;DHT22;11069;48.988;8.450;2022-11-25T04:29:09;2.40;99.90
21815;DHT22;11069;48.988;8.450;2022-11-25T04:31:34;2.40;99.90
21815;DHT22;11069;48.988;8.450;2022-11-25T04:34:02;2.30;99.90
21815;DHT22;11069;48.988;8.450;2022-11-25T04:36:28;2.40;99.90
21815;DHT22;11069;48.988;8.450;2022-11-25T04:38:54;2.40;99.90
21815;DHT22;11069;48.988;8.450;2022-11-25T04:41:22;2.30;99.90
21815;DHT22;11069;48.988;8.450;2022-11-25T04:43:47;2.40;99.90
21815;DHT22;11069;48.988;8.450;2022-11-25T04:46:21;2.40;99.90
21815;DHT22;11069;48.988;8.450;2022-11-25T04:48:49;2.50;99.90
21815;DHT22;11069;48.988;8.450;2022-11-25T04:51:14;2.40;99.90
21815;DHT22;11069;48.988;8.450;2022-11-25T04:53:40;2.40;99.90
21815;DHT22;11069;48.988;8.450;2022-11-25T04:56:06;2.40;99.90
21815;DHT22;11069;48.988;8.450;2022-11-25T04:58:31;2.50;99.90
21815;DHT22;11069;48.988;8.450;2022-11-25T05:01:15;2.40;99.90
21815;DHT22;11069;48.988;8.450;2022-11-25T05:03:41;2.30;99.90
21815;DHT22;11069;48.988;8.450;2022-11-25T05:06:08;2.30;99.90
21815;DHT22;11069;48.988;8.450;2022-11-25T05:08:34;2.20;99.90
21815;DHT22;11069;48.988;8.450;2022-11-25T05:11:00;2.20;99.90
21815;DHT22;11069;48.988;8.450;2022-11-25T05:13:25;2.10;99.90
21815;DHT22;11069;48.988;8.450;2022-11-25T05:15:51;2.10;99.90
21815;DHT22;11069;48.988;8.450;2022-11-25T05:18:17;2.10;99.90
21815;DHT22;11069;48.988;8.450;2022-11-25T05:20:42;2.10;99.90
21815;DHT22;11069;48.988;8.450;2022-11-25T05:23:08;2.10;99.90
21815;DHT22;11069;48.988;8.450;2022-11-25T05:25:34;2.20;99.90
21815;DHT22;11069;48.988;8.450;2022-11-25T05:28:00;2.30;99.90
21815;DHT22;11069;48.988;8.450;2022-11-25T05:30:25;2.20;99.90
21815;DHT22;11069;48.988;8.450;2022-11-25T05:32:51;2.20;99.90
21815;DHT22;11069;48.988;8.450;2022-11-25T05:35:17;2.00;99.90
21815;DHT22;11069;48.988;8.450;2022-11-25T05:37:43;2.00;99.90
21815;DHT22;11069;48.988;8.450;2022-11-25T05:40:09;1.90;99.90
21815;DHT22;11069;48.988;8.450;2022-11-25T05:42:35;1.90;99.90
21815;DHT22;11069;48.988;8.450;2022-11-25T05:45:01;1.80;99.90
21815;DHT22;11069;48.988;8.450;2022-11-25T05:47:27;1.80;99.90
21815;DHT22;11069;48.988;8.450;2022-11-25T05:49:52;1.80;99.90
21815;DHT22;11069;48.988;8.450;2022-11-25T05:52:18;1.90;99.90
21815;DHT22;11069;48.988;8.450;2022-11-25T05:54:43;2.00;99.90
21815;DHT22;11069;48.988;8.450;2022-11-25T05:57:09;1.80;99.90
21815;DHT22;11069;48.988;8.450;2022-11-25T05:59:35;2.00;99.90
21815;DHT22;11069;48.988;8.450;2022-11-25T06:02:00;2.10;99.90
21815;DHT22;11069;48.988;8.450;2022-11-25T06:04:26;2.30;99.90
21815;DHT22;11069;48.988;8.450;2022-11-25T06:06:51;2.30;99.90
21815;DHT22;11069;48.988;8.450;2022-11-25T06:09:17;2.40;99.90
21815;DHT22;11069;48.988;8.450;2022-11-25T06:11:43;2.40;99.90
21815;DHT22;11069;48.988;8.450;2022-11-25T06:14:08;2.40;99.90
21815;DHT22;11069;48.988;8.450;2022-11-25T06:16:34;2.50;99.90
21815;DHT22;11069;48.988;8.450;2022-11-25T06:19:01;2.50;99.90
21815;DHT22;11069;48.988;8.450;2022-11-25T06:21:30;2.50;99.90
21815;DHT22;11069;48.988;8.450;2022-11-25T06:23:55;2.50;99.90
21815;DHT22;11069;48.988;8.450;2022-11-25T06:26:22;2.60;99.90
21815;DHT22;11069;48.988;8.450;2022-11-25T06:28:48;2.60;99.90
21815;DHT22;11069;48.988;8.450;2022-11-25T06:31:19;2.70;99.90
21815;DHT22;11069;48.988;8.450;2022-11-25T06:33:51;2.80;99.90
21815;DHT22;11069;48.988;8.450;2022-11-25T06:36:19;2.80;99.90
21815;DHT22;11069;48.988;8.450;2022-11-25T06:38:46;2.90;99.90
21815;DHT22;11069;48.988;8.450;2022-11-25T06:41:13;3.00;99.90
21815;DHT22;11069;48.988;8.450;2022-11-25T06:43:39;2.90;99.90
21815;DHT22;11069;48.988;8.450;2022-11-25T06:46:10;3.00;99.90
21815;DHT22;11069;48.988;8.450;2022-11-25T06:48:36;3.00;99.90
21815;DHT22;11069;48.988;8.450;2022-11-25T06:51:05;3.10;99.90
21815;DHT22;11069;48.988;8.450;2022-11-25T06:53:32;3.20;99.90
21815;DHT22;11069;48.988;8.450;2022-11-25T06:58:42;3.40;99.90
21815;DHT22;11069;48.988;8.450;2022-11-25T07:01:12;3.30;99.90
21815;DHT22;11069;48.988;8.450;2022-11-25T07:03:40;3.30;99.90
21815;DHT22;11069;48.988;8.450;2022-11-25T07:06:06;3.40;99.90
21815;DHT22;11069;48.988;8.450;2022-11-25T07:08:31;3.50;99.90
21815;DHT22;11069;48.988;8.450;2022-11-25T07:11:04;3.50;99.90
21815;DHT22;11069;48.988;8.450;2022-11-25T07:13:30;3.60;99.90
21815;DHT22;11069;48.988;8.450;2022-11-25T07:15:59;3.60;99.90
21815;DHT22;11069;48.988;8.450;2022-11-25T07:18:25;3.70;99.90
21815;DHT22;11069;48.988;8.450;2022-11-25T07:20:52;3.90;99.90
21815;DHT22;11069;48.988;8.450;2022-11-25T07:23:18;3.90;99.90
21815;DHT22;11069;48.988;8.450;2022-11-25T07:25:44;3.90;99.90
21815;DHT22;11069;48.988;8.450;2022-11-25T07:28:09;3.90;99.90
21815;DHT22;11069;48.988;8.450;2022-11-25T07:30:35;4.00;99.90
21815;DHT22;11069;48.988;8.450;2022-11-25T07:33:00;4.10;99.90
21815;DHT22;11069;48.988;8.450;2022-11-25T07:35:26;4.20;99.90
21815;DHT22;11069;48.988;8.450;2022-11-25T07:37:51;4.30;99.90
21815;DHT22;11069;48.988;8.450;2022-11-25T07:40:17;4.40;99.90
21815;DHT22;11069;48.988;8.450;2022-11-25T07:42:43;4.40;99.90
21815;DHT22;11069;48.988;8.450;2022-11-25T07:45:08;4.40;99.90
21815;DHT22;11069;48.988;8.450;2022-11-25T07:47:34;4.50;99.90
21815;DHT22;11069;48.988;8.450;2022-11-25T07:50:00;4.60;99.90
21815;DHT22;11069;48.988;8.450;2022-11-25T07:52:25;4.70;99.90
21815;DHT22;11069;48.988;8.450;2022-11-25T07:54:52;4.90;99.90
21815;DHT22;11069;48.988;8.450;2022-11-25T07:57:17;4.90;99.90
21815;DHT22;11069;48.988;8.450;2022-11-25T07:59:43;5.00;99.90
21815;DHT22;11069;48.988;8.450;2022-11-25T08:02:09;5.10;99.90
21815;DHT22;11069;48.988;8.450;2022-11-25T08:04:35;5.20;99.90
21815;DHT22;11069;48.988;8.450;2022-11-25T08:07:01;5.20;99.90
21815;DHT22;11069;48.988;8.450;2022-11-25T08:09:27;5.30;99.90
21815;DHT22;11069;48.988;8.450;2022-11-25T08:11:52;5.20;99.90
21815;DHT22;11069;48.988;8.450;2022-11-25T08:14:19;5.30;99.90
21815;DHT22;11069;48.988;8.450;2022-11-25T08:16:45;5.20;99.90
21815;DHT22;11069;48.988;8.450;2022-11-25T08:19:14;5.30;99.90
21815;DHT22;11069;48.988;8.450;2022-11-25T08:21:40;5.40;99.90
21815;DHT22;11069;48.988;8.450;2022-11-25T08:24:06;5.40;99.90
21815;DHT22;11069;48.988;8.450;2022-11-25T08:26:34;5.50;99.90
21815;DHT22;11069;48.988;8.450;2022-11-25T08:29:03;5.70;99.90
21815;DHT22;11069;48.988;8.450;2022-11-25T08:31:35;5.90;99.90
21815;DHT22;11069;48.988;8.450;2022-11-25T08:34:02;6.20;99.90
21815;DHT22;11069;48.988;8.450;2022-11-25T08:36:29;6.20;99.90
21815;DHT22;11069;48.988;8.450;2022-11-25T08:38:56;6.30;99.90
21815;DHT22;11069;48.988;8.450;2022-11-25T08:41:28;6.40;99.90
21815;DHT22;11069;48.988;8.450;2022-11-25T08:43:56;6.50;99.90
21815;DHT22;11069;48.988;8.450;2022-11-25T08:46:26;6.60;99.90
21815;DHT22;11069;48.988;8.450;2022-11-25T08:48:53;6.60;99.90
21815;DHT22;11069;48.988;8.450;2022-11-25T08:51:25;6.60;99.90
21815;DHT22;11069;48.988;8.450;2022-11-25T08:53:51;6.70;99.90
21815;DHT22;11069;48.988;8.450;2022-11-25T08:56:18;6.70;99.90
21815;DHT22;11069;48.988;8.450;2022-11-25T08:58:44;6.70;99.90
21815;DHT22;11069;48.988;8.450;2022-11-25T09:01:10;6.70;99.90
21815;DHT22;11069;48.988;8.450;2022-11-25T09:03:42;6.80;99.90
21815;DHT22;11069;48.988;8.450;2022-11-25T09:06:09;6.80;99.90
21815;DHT22;11069;48.988;8.450;2022-11-25T09:08:35;6.80;99.90
21815;DHT22;11069;48.988;8.450;2022-11-25T09:11:02;6.90;99.90
21815;DHT22;11069;48.988;8.450;2022-11-25T09:13:28;6.90;99.90
21815;DHT22;11069;48.988;8.450;2022-11-25T09:15:53;7.00;99.90
21815;DHT22;11069;48.988;8.450;2022-11-25T09:18:19;7.10;99.90
21815;DHT22;11069;48.988;8.450;2022-11-25T09:20:50;7.10;99.90
21815;DHT22;11069;48.988;8.450;2022-11-25T09:23:16;7.10;99.90
21815;DHT22;11069;48.988;8.450;2022-11-25T09:25:41;7.20;99.90
21815;DHT22;11069;48.988;8.450;2022-11-25T09:28:08;7.10;99.90
21815;DHT22;11069;48.988;8.450;2022-11-25T09:30:33;6.90;99.90
21815;DHT22;11069;48.988;8.450;2022-11-25T09:32:59;6.90;99.90
21815;DHT22;11069;48.988;8.450;2022-11-25T09:35:25;6.80;99.90
21815;DHT22;11069;48.988;8.450;2022-11-25T09:37:51;6.80;99.90
21815;DHT22;11069;48.988;8.450;2022-11-25T09:40:29;6.80;99.90
21815;DHT22;11069;48.988;8.450;2022-11-25T09:43:12;6.80;99.90
21815;DHT22;11069;48.988;8.450;2022-11-25T09:52:29;7.00;99.90
21815;DHT22;11069;48.988;8.450;2022-11-25T09:55:10;7.00;99.90
21815;DHT22;11069;48.988;8.450;2022-11-25T09:58:15;6.90;99.90
21815;DHT22;11069;48.988;8.450;2022-11-25T10:00:45;6.90;99.90
21815;DHT22;11069;48.988;8.450;2022-11-25T10:03:31;7.00;99.90
21815;DHT22;11069;48.988;8.450;2022-11-25T10:09:10;7.20;99.90
21815;DHT22;11069;48.988;8.450;2022-11-25T10:11:51;7.10;99.90
21815;DHT22;11069;48.988;8.450;2022-11-25T10:16:57;7.00;99.90
21815;DHT22;11069;48.988;8.450;2022-11-25T10:24:53;7.00;99.90
21815;DHT22;11069;48.988;8.450;2022-11-25T10:27:26;7.00;99.90
21815;DHT22;11069;48.988;8.450;2022-11-25T10:30:02;7.00;99.90
21815;DHT22;11069;48.988;8.450;2022-11-25T10:32:38;7.00;99.90
21815;DHT22;11069;48.988;8.450;2022-11-25T10:35:22;6.90;99.90
21815;DHT22;11069;48.988;8.450;2022-11-25T10:37:51;6.90;99.90
21815;DHT22;11069;48.988;8.450;2022-11-25T10:40:20;7.00;99.90
21815;DHT22;11069;48.988;8.450;2022-11-25T10:42:46;7.10;99.90
21815;DHT22;11069;48.988;8.450;2022-11-25T10:45:11;7.10;99.90
21815;DHT22;11069;48.988;8.450;2022-11-25T10:51:00;7.10;99.90
21815;DHT22;11069;48.988;8.450;2022-11-25T10:53:28;7.20;99.90
21815;DHT22;11069;48.988;8.450;2022-11-25T10:56:04;7.20;99.90
21815;DHT22;11069;48.988;8.450;2022-11-25T10:58:38;7.10;99.90
21815;DHT22;11069;48.988;8.450;2022-11-25T11:01:13;7.10;99.90
21815;DHT22;11069;48.988;8.450;2022-11-25T11:03:42;7.10;99.90
21815;DHT22;11069;48.988;8.450;2022-11-25T11:06:28;7.20;99.90
21815;DHT22;11069;48.988;8.450;2022-11-25T11:08:55;7.30;99.90
21815;DHT22;11069;48.988;8.450;2022-11-25T11:11:22;7.30;99.90
21815;DHT22;11069;48.988;8.450;2022-11-25T11:13:49;7.40;99.90
21815;DHT22;11069;48.988;8.450;2022-11-25T11:16:36;7.40;99.90
21815;DHT22;11069;48.988;8.450;2022-11-25T11:19:02;7.50;99.90
21815;DHT22;11069;48.988;8.450;2022-11-25T11:21:33;7.50;99.90
21815;DHT22;11069;48.988;8.450;2022-11-25T11:24:00;7.60;99.90
21815;DHT22;11069;48.988;8.450;2022-11-25T11:29:14;7.70;99.90
21815;DHT22;11069;48.988;8.450;2022-11-25T11:31:46;7.70;99.90
21815;DHT22;11069;48.988;8.450;2022-11-25T11:50:46;7.90;99.90
21815;DHT22;11069;48.988;8.450;2022-11-25T12:03:43;8.30;99.90
21815;DHT22;11069;48.988;8.450;2022-11-25T12:06:16;8.30;99.90
21815;DHT22;11069;48.988;8.450;2022-11-25T12:08:51;8.40;99.90
21815;DHT22;11069;48.988;8.450;2022-11-25T12:11:20;8.50;99.90
21815;DHT22;11069;48.988;8.450;2022-11-25T12:16:44;8.70;99.90
21815;DHT22;11069;48.988;8.450;2022-11-25T12:22:02;9.00;99.90
21815;DHT22;11069;48.988;8.450;2022-11-25T12:24:49;9.00;99.90
21815;DHT22;11069;48.988;8.450;2022-11-25T12:27:35;9.00;99.90
21815;DHT22;11069;48.988;8.450;2022-11-25T12:30:11;9.10;99.90
21815;DHT22;11069;48.988;8.450;2022-11-25T12:35:50;9.30;99.90
21815;DHT22;11069;48.988;8.450;2022-11-25T12:38:32;9.50;99.90
21815;DHT22;11069;48.988;8.450;2022-11-25T12:48:44;10.40;99.90
21815;DHT22;11069;48.988;8.450;2022-11-25T12:54:35;10.70;99.90
21815;DHT22;11069;48.988;8.450;2022-11-25T13:16:16;10.60;99.90
21815;DHT22;11069;48.988;8.450;2022-11-25T13:18:44;10.50;99.90
21815;DHT22;11069;48.988;8.450;2022-11-25T13:21:12;10.40;99.90
21815;DHT22;11069;48.988;8.450;2022-11-25T13:23:56;10.40;99.90
21815;DHT22;11069;48.988;8.450;2022-11-25T13:29:00;10.50;99.90
21815;DHT22;11069;48.988;8.450;2022-11-25T13:34:25;10.50;99.90
21815;DHT22;11069;48.988;8.450;2022-11-25T13:36:53;10.40;99.90
21815;DHT22;11069;48.988;8.450;2022-11-25T13:39:32;10.30;99.90
21815;DHT22;11069;48.988;8.450;2022-11-25T13:42:02;10.30;99.90
21815;DHT22;11069;48.988;8.450;2022-11-25T13:44:30;10.20;99.90
21815;DHT22;11069;48.988;8.450;2022-11-25T13:47:21;10.10;99.90
21815;DHT22;11069;48.988;8.450;2022-11-25T13:52:35;10.20;99.90
21815;DHT22;11069;48.988;8.450;2022-11-25T13:55:07;10.20;99.90
21815;DHT22;11069;48.988;8.450;2022-11-25T13:57:35;10.10;99.90
21815;DHT22;11069;48.988;8.450;2022-11-25T14:05:56;10.10;99.90
21815;DHT22;11069;48.988;8.450;2022-11-25T14:11:30;10.10;99.90
21815;DHT22;11069;48.988;8.450;2022-11-25T14:15:07;10.10;99.90
21815;DHT22;11069;48.988;8.450;2022-11-25T14:27:46;10.00;99.90
21815;DHT22;11069;48.988;8.450;2022-11-25T14:30:14;10.00;99.90
21815;DHT22;11069;48.988;8.450;2022-11-25T14:35:33;10.00;99.90
21815;DHT22;11069;48.988;8.450;2022-11-25T14:38:24;10.00;99.90
21815;DHT22;11069;48.988;8.450;2022-11-25T14:43:29;10.00;99.90
21815;DHT22;11069;48.988;8.450;2022-11-25T14:46:14;10.00;99.90
21815;DHT22;11069;48.988;8.450;2022-11-25T14:48:41;10.00;99.90
21815;DHT22;11069;48.988;8.450;2022-11-25T14:51:09;10.00;99.90
21815;DHT22;11069;48.988;8.450;2022-11-25T14:53:41;10.00;99.90
21815;DHT22;11069;48.988;8.450;2022-11-25T14:56:08;9.90;99.90
21815;DHT22;11069;48.988;8.450;2022-11-25T14:58:41;9.90;99.90
21815;DHT22;11069;48.988;8.450;2022-11-25T15:01:49;9.90;99.90
21815;DHT22;11069;48.988;8.450;2022-11-25T15:04:19;9.80;99.90
21815;DHT22;11069;48.988;8.450;2022-11-25T15:06:51;9.80;99.90
21815;DHT22;11069;48.988;8.450;2022-11-25T15:09:40;9.80;99.90
21815;DHT22;11069;48.988;8.450;2022-11-25T15:12:12;9.80;99.90
21815;DHT22;11069;48.988;8.450;2022-11-25T15:14:43;9.80;99.90
21815;DHT22;11069;48.988;8.450;2022-11-25T15:17:29;9.80;99.90
21815;DHT22;11069;48.988;8.450;2022-11-25T15:19:58;9.80;99.90
21815;DHT22;11069;48.988;8.450;2022-11-25T15:22:26;9.70;99.90
21815;DHT22;11069;48.988;8.450;2022-11-25T15:24:53;9.70;99.90
21815;DHT22;11069;48.988;8.450;2022-11-25T15:27:25;9.70;99.90
21815;DHT22;11069;48.988;8.450;2022-11-25T15:29:52;9.60;99.90
21815;DHT22;11069;48.988;8.450;2022-11-25T15:32:24;9.60;99.90
21815;DHT22;11069;48.988;8.450;2022-11-25T15:34:51;9.50;99.90
21815;DHT22;11069;48.988;8.450;2022-11-25T15:37:17;9.60;99.90
21815;DHT22;11069;48.988;8.450;2022-11-25T15:39:42;9.60;99.90
21815;DHT22;11069;48.988;8.450;2022-11-25T15:42:27;9.60;99.90
21815;DHT22;11069;48.988;8.450;2022-11-25T15:44:59;9.50;99.90
21815;DHT22;11069;48.988;8.450;2022-11-25T15:47:27;9.50;99.90
21815;DHT22;11069;48.988;8.450;2022-11-25T15:52:28;9.60;99.90
21815;DHT22;11069;48.988;8.450;2022-11-25T15:55:00;9.50;99.90
21815;DHT22;11069;48.988;8.450;2022-11-25T15:57:30;9.40;99.90
21815;DHT22;11069;48.988;8.450;2022-11-25T16:08:19;9.30;99.90
21815;DHT22;11069;48.988;8.450;2022-11-25T16:10:50;9.30;99.90
21815;DHT22;11069;48.988;8.450;2022-11-25T16:13:16;9.20;99.90
21815;DHT22;11069;48.988;8.450;2022-11-25T16:15:48;9.10;99.90
21815;DHT22;11069;48.988;8.450;2022-11-25T16:18:16;9.00;99.90
21815;DHT22;11069;48.988;8.450;2022-11-25T16:20:51;8.90;99.90
21815;DHT22;11069;48.988;8.450;2022-11-25T16:23:19;8.70;99.90
21815;DHT22;11069;48.988;8.450;2022-11-25T16:26:02;8.60;99.90
21815;DHT22;11069;48.988;8.450;2022-11-25T16:28:30;8.40;99.90
21815;DHT22;11069;48.988;8.450;2022-11-25T16:30:55;8.30;99.90
21815;DHT22;11069;48.988;8.450;2022-11-25T16:33:26;8.20;99.90
21815;DHT22;11069;48.988;8.450;2022-11-25T16:35:52;8.00;99.90
21815;DHT22;11069;48.988;8.450;2022-11-25T16:38:17;7.90;99.90
21815;DHT22;11069;48.988;8.450;2022-11-25T16:40:43;7.90;99.90
21815;DHT22;11069;48.988;8.450;2022-11-25T16:43:16;7.80;99.90
21815;DHT22;11069;48.988;8.450;2022-11-25T16:45:47;7.80;99.90
21815;DHT22;11069;48.988;8.450;2022-11-25T16:48:20;7.80;99.90
21815;DHT22;11069;48.988;8.450;2022-11-25T16:50:46;7.80;99.90
21815;DHT22;11069;48.988;8.450;2022-11-25T16:53:12;7.90;99.90
21815;DHT22;11069;48.988;8.450;2022-11-25T16:55:41;7.90;99.90
21815;DHT22;11069;48.988;8.450;2022-11-25T16:58:21;7.80;99.90
21815;DHT22;11069;48.988;8.450;2022-11-25T17:00:51;7.70;99.90
21815;DHT22;11069;48.988;8.450;2022-11-25T17:03:18;7.60;99.90
21815;DHT22;11069;48.988;8.450;2022-11-25T17:05:44;7.60;99.90
21815;DHT22;11069;48.988;8.450;2022-11-25T17:08:11;7.60;99.90
21815;DHT22;11069;48.988;8.450;2022-11-25T17:10:37;7.60;99.90
21815;DHT22;11069;48.988;8.450;2022-11-25T17:13:03;7.50;99.90
21815;DHT22;11069;48.988;8.450;2022-11-25T17:15:32;7.50;99.90
21815;DHT22;11069;48.988;8.450;2022-11-25T17:18:00;7.50;99.90
21815;DHT22;11069;48.988;8.450;2022-11-25T17:20:26;7.50;99.90
21815;DHT22;11069;48.988;8.450;2022-11-25T17:22:52;7.40;99.90
21815;DHT22;11069;48.988;8.450;2022-11-25T17:25:18;7.50;99.90
21815;DHT22;11069;48.988;8.450;2022-11-25T17:27:48;7.50;99.90
21815;DHT22;11069;48.988;8.450;2022-11-25T17:30:32;7.50;99.90
21815;DHT22;11069;48.988;8.450;2022-11-25T17:33:02;7.60;99.90
21815;DHT22;11069;48.988;8.450;2022-11-25T17:35:28;7.60;99.90
21815;DHT22;11069;48.988;8.450;2022-11-25T17:37:56;7.70;99.90
21815;DHT22;11069;48.988;8.450;2022-11-25T17:40:22;7.70;99.90
21815;DHT22;11069;48.988;8.450;2022-11-25T17:42:48;7.80;99.90
21815;DHT22;11069;48.988;8.450;2022-11-25T17:45:17;7.80;99.90
21815;DHT22;11069;48.988;8.450;2022-11-25T17:47:43;7.90;99.90
21815;DHT22;11069;48.988;8.450;2022-11-25T17:50:19;8.00;99.90
21815;DHT22;11069;48.988;8.450;2022-11-25T17:52:44;8.00;99.90
21815;DHT22;11069;48.988;8.450;2022-11-25T17:55:10;8.10;99.90
21815;DHT22;11069;48.988;8.450;2022-11-25T17:57:37;8.10;99.90
21815;DHT22;11069;48.988;8.450;2022-11-25T18:00:04;8.20;99.90
21815;DHT22;11069;48.988;8.450;2022-11-25T18:02:30;8.10;99.90
21815;DHT22;11069;48.988;8.450;2022-11-25T18:04:56;8.10;99.90
21815;DHT22;11069;48.988;8.450;2022-11-25T18:07:21;8.20;99.90
21815;DHT22;11069;48.988;8.450;2022-11-25T18:09:47;8.30;99.90
21815;DHT22;11069;48.988;8.450;2022-11-25T18:12:26;8.30;99.90
21815;DHT22;11069;48.988;8.450;2022-11-25T18:14:53;8.40;99.90
21815;DHT22;11069;48.988;8.450;2022-11-25T18:17:19;8.40;99.90